Etusivu
METAR-TAF:

METAR-TAF

Lentoasemat :

Atlanta, Georgia, Yhdysvallat

Leveyspiiri: 33-54-43N, Pituuspiiri: 084-56-26W, korkeus merenpinnasta: 393 m

Tämänhetkinen sää

Tämä raportti tehtiin 19 minuuttia sitten, kello 09.35 UTC
Tuuli 4 kn pohjoisesta
Lämpötila 4°C
Kosteus 52%
Ilmanpaine 1031 hPa
Näkyvyys: 16.1 km
selkeää

METAR: KPUJ 080935Z AUTO 35004KT 10SM CLR 04/M05 A3045 RMK AO2

Aika: 04:54 (09:54 UTC)


TAF: puuttuu

Säähavainnot ja -ennusteet yli 4000 lentoasemalta (METAR- ja TAF-raportit).

Käytössä olevat sääasemat on merkitty karttaan keltaisilla ja punaisilla pisteillä.

Aseta hiiri pisteen päälle nähdäksesi sääaseman nimen.

Klikkaa sitten nähdäksesi säähavainnot ja -ennusteet.

Kartan vaihtaminen: klikkaa mustalla rastilla varustettuja vihreitä pisteitä, niin voit zoomata sisään; viivalla varustettua vihreää pistettä, niin voit zoomata ulos tai vihreitä nuolia, niin pääset viereisille kartoille.


METAR-TAF: